Terminal Aerodrome Forecast
Issued by NWS Sioux Falls, SD

Home | Current Version | Previous Version | Text Only | Print | Product List | Glossary On
Versions: 1 2 3 4 5 6 7 8 9 10 11 12 13 14 15 16 17
000
FTUS43 KFSD 202320
TAFHON
TAF
KHON 202320Z 2100/2124 11009KT P6SM FEW250
     FM211000 13007KT P6SM VCTS SCT060CB BKN100
      TEMPO 2111/2113 -TSRA
     FM211500 14007KT P6SM SCT200
     FM211700 10006KT P6SM SCT200
     FM212000 06006KT P6SM SCT120=

USA.gov is the U.S. government's official web portal to all federal, state and local government web resources and services.